Rockland, Maine
Current Conditions -  °F | °C
As of 5:15 PM on Friday 24 Oct 2014 (Local Time) from KRKD Reporting Station
Overcast Overcast  
Wind Chill: 45°   Ceiling: 1800
Heat Index: 48°   Visibility: 10mi
Dew Point: 43°   Wind: 8mph
Humidity: 82%   Direction: 360°N
Pressure: 29.62"   Gusts: 16mph
Location:  44.1°N, 69.11°W
Report Text: KRKD 242115Z AUTO 36007G14KT 10SM BKN018 OVC025 09/06 A2962 RMK AO1
Loading
Personal Weather Stations






























Interactive Weather Map New forecast layout! Learn more

10-Day Weather Forecast

Advertisements
Track Severe Weather on mobile